Time;durP1;ratioP1;P1;durP2;ratioP2;P2;SDS_P1;SDS_P2;PMS_P1;PMS_P2;Temp;Humidity;BMP_temperature;BMP_pressure;BME280_temperature;BME280_humidity;BME280_pressure;Samples;Min_cycle;Max_cycle;Signal;HPM_P1;HPM_P2
2023/07/01 00:01:35;;;;;;;11.95;9.73;;;;;;;;;;5013010;28;20030;-76
2023/07/01 00:04:01;;;;;;;13.82;8.70;;;;;;;;;;5014992;28;20029;-77
2023/07/01 00:06:27;;;;;;;13.68;9.18;;;;;;;;;;5014530;28;20026;-77
2023/07/01 00:08:54;;;;;;;17.50;9.63;;;;;;;;;;5014095;28;20392;-76
2023/07/01 00:11:20;;;;;;;13.93;8.70;;;;;;;;;;5014893;28;20473;-77
2023/07/01 00:13:46;;;;;;;16.20;10.23;;;;;;;;;;5014610;28;20022;-77
2023/07/01 00:16:13;;;;;;;16.08;9.20;;;;;;;;;;5014531;28;20029;-77
2023/07/01 00:18:40;;;;;;;14.98;9.43;;;;;;;;;;4996492;28;20040;-77
2023/07/01 00:21:06;;;;;;;16.05;10.40;;;;;;;;;;5014477;28;20041;-77
2023/07/01 00:23:33;;;;;;;18.73;10.48;;;;;;;;;;4996877;28;20038;-76
2023/07/01 00:25:59;;;;;;;12.27;9.50;;;;;;;;;;5014511;28;20022;-77
2023/07/01 00:28:25;;;;;;;15.80;9.68;;;;;;;;;;5013496;28;20631;-77
2023/07/01 00:30:51;;;;;;;16.02;9.45;;;;;;;;;;5014355;28;20021;-76
2023/07/01 00:33:17;;;;;;;15.50;9.55;;;;;;;;;;5014397;28;20056;-75
2023/07/01 00:35:43;;;;;;;17.60;10.10;;;;;;;;;;5014198;28;20030;-76
2023/07/01 00:38:09;;;;;;;15.20;10.13;;;;;;;;;;5013255;28;20026;-77
2023/07/01 00:40:35;;;;;;;12.90;8.23;;;;;;;;;;5014200;28;20435;-76
2023/07/01 00:43:01;;;;;;;14.40;8.68;;;;;;;;;;5013738;28;20028;-75
2023/07/01 00:45:27;;;;;;;15.63;8.60;;;;;;;;;;4996542;28;20022;-75
2023/07/01 00:47:53;;;;;;;17.77;9.43;;;;;;;;;;5013043;28;20055;-76
2023/07/01 00:50:19;;;;;;;15.30;8.65;;;;;;;;;;5014069;28;20026;-76
2023/07/01 00:52:47;;;;;;;12.52;8.80;;;;;;;;;;5013967;28;20080;-76
2023/07/01 00:55:13;;;;;;;15.60;8.40;;;;;;;;;;5013845;28;20048;-77
2023/07/01 00:57:39;;;;;;;14.65;8.57;;;;;;;;;;5012721;28;20030;-77
2023/07/01 01:00:13;;;;;;;12.57;7.45;;;;;;;;;;5013662;28;20030;-76
2023/07/01 01:02:45;;;;;;;14.63;8.63;;;;;;;;;;5013613;28;20484;-76
2023/07/01 01:05:15;;;;;;;14.27;8.70;;;;;;;;;;5009969;28;20026;-74
2023/07/01 01:07:48;;;;;;;14.77;8.32;;;;;;;;;;5010078;28;20025;-76
2023/07/01 01:10:14;;;;;;;13.48;8.25;;;;;;;;;;5012901;28;20049;-77
2023/07/01 01:12:42;;;;;;;15.02;8.25;;;;;;;;;;5011881;28;20076;-77
2023/07/01 01:15:11;;;;;;;20.52;8.93;;;;;;;;;;5012395;28;20026;-75
2023/07/01 01:17:39;;;;;;;16.83;8.85;;;;;;;;;;4994007;28;20441;-77
2023/07/01 01:20:13;;;;;;;13.52;8.13;;;;;;;;;;5009785;28;20061;-76
2023/07/01 01:22:56;;;;;;;13.32;8.15;;;;;;;;;;5013314;28;20480;-76
2023/07/01 01:25:43;;;;;;;15.40;7.70;;;;;;;;;;5011805;28;20017;-76
2023/07/01 01:28:09;;;;;;;11.23;8.18;;;;;;;;;;5012431;28;20476;-76
2023/07/01 01:30:35;;;;;;;11.55;7.70;;;;;;;;;;5013221;28;20028;-77
2023/07/01 01:33:02;;;;;;;10.88;6.85;;;;;;;;;;5013096;28;20030;-77
2023/07/01 01:35:28;;;;;;;13.35;7.68;;;;;;;;;;5013233;28;20026;-78
2023/07/01 01:37:54;;;;;;;15.85;8.27;;;;;;;;;;4994571;28;20030;-78
2023/07/01 01:40:26;;;;;;;17.70;8.45;;;;;;;;;;5013179;28;20029;-78
2023/07/01 01:42:52;;;;;;;;;;;;;;;;;;5013506;28;20025;-78
2023/07/01 01:45:19;;;;;;;11.25;7.57;;;;;;;;;;5012890;28;19905;-79
2023/07/01 01:47:46;;;;;;;10.98;7.65;;;;;;;;;;5012178;28;20543;-78
2023/07/01 01:50:13;;;;;;;13.73;7.95;;;;;;;;;;5012754;28;20503;-77
2023/07/01 01:52:40;;;;;;;11.93;7.70;;;;;;;;;;5012989;28;20030;-78
2023/07/01 01:55:08;;;;;;;17.40;8.55;;;;;;;;;;5012781;28;20072;-78
2023/07/01 01:57:34;;;;;;;13.38;9.00;;;;;;;;;;5011987;28;20492;-78
2023/07/01 02:00:00;;;;;;;14.52;8.00;;;;;;;;;;5012697;28;20067;-78
2023/07/01 02:02:26;;;;;;;9.38;7.90;;;;;;;;;;5012565;28;20034;-77
2023/07/01 02:04:52;;;;;;;13.73;8.50;;;;;;;;;;4994663;28;20025;-77
2023/07/01 02:07:18;;;;;;;14.45;7.40;;;;;;;;;;5011894;28;20030;-78
2023/07/01 02:09:44;;;;;;;13.00;7.55;;;;;;;;;;5012763;28;20022;-77
2023/07/01 02:12:10;;;;;;;15.75;8.48;;;;;;;;;;5012657;28;20058;-78
2023/07/01 02:14:36;;;;;;;15.00;8.40;;;;;;;;;;5012691;28;20036;-78
2023/07/01 02:17:02;;;;;;;12.35;8.75;;;;;;;;;;5013581;28;20029;-77
2023/07/01 02:19:28;;;;;;;13.25;7.85;;;;;;;;;;5012443;28;20113;-77
2023/07/01 02:21:54;;;;;;;14.30;8.43;;;;;;;;;;5012565;28;20029;-77
2023/07/01 02:24:20;;;;;;;15.48;8.50;;;;;;;;;;5011871;28;20026;-77
2023/07/01 02:26:46;;;;;;;19.83;9.75;;;;;;;;;;5012218;28;20022;-77
2023/07/01 02:29:12;;;;;;;13.13;8.82;;;;;;;;;;5011975;28;20353;-77
2023/07/01 02:31:38;;;;;;;13.48;9.55;;;;;;;;;;5012199;28;20080;-77
2023/07/01 02:34:04;;;;;;;15.20;9.45;;;;;;;;;;5012201;28;20087;-76
2023/07/01 02:36:30;;;;;;;18.08;9.32;;;;;;;;;;5012264;28;20460;-77
2023/07/01 02:38:56;;;;;;;17.35;9.93;;;;;;;;;;5011445;28;20455;-77
2023/07/01 02:41:22;;;;;;;12.70;9.18;;;;;;;;;;5011779;28;20467;-77
2023/07/01 02:43:48;;;;;;;11.75;8.57;;;;;;;;;;5012090;28;20484;-76
2023/07/01 02:46:14;;;;;;;16.85;9.40;;;;;;;;;;5011852;28;20030;-76
2023/07/01 02:48:40;;;;;;;17.85;10.07;;;;;;;;;;5011133;28;20022;-76
2023/07/01 02:51:07;;;;;;;15.80;9.45;;;;;;;;;;5012367;28;20053;-75
2023/07/01 02:53:33;;;;;;;17.38;9.18;;;;;;;;;;4994694;28;20510;-76
2023/07/01 02:56:02;;;;;;;18.55;10.68;;;;;;;;;;5011905;28;20025;-76
2023/07/01 02:58:28;;;;;;;17.48;10.15;;;;;;;;;;5010944;28;20017;-77
2023/07/01 03:00:54;;;;;;;13.18;9.02;;;;;;;;;;5011605;28;20121;-76
2023/07/01 03:03:20;;;;;;;11.75;9.50;;;;;;;;;;5011346;28;20156;-76
2023/07/01 03:05:46;;;;;;;15.15;10.07;;;;;;;;;;5011573;28;20392;-76
2023/07/01 03:08:12;;;;;;;12.88;9.25;;;;;;;;;;5011020;28;20025;-76
2023/07/01 03:10:38;;;;;;;14.25;10.00;;;;;;;;;;5011528;28;20025;-77
2023/07/01 03:13:04;;;;;;;11.38;9.60;;;;;;;;;;5011360;28;20030;-76
2023/07/01 03:15:30;;;;;;;13.10;9.88;;;;;;;;;;5011428;28;20033;-76
2023/07/01 03:17:56;;;;;;;19.77;8.90;;;;;;;;;;5010413;28;20045;-76
2023/07/01 03:20:25;;;;;;;11.77;9.75;;;;;;;;;;5011391;28;20030;-76
2023/07/01 03:22:51;;;;;;;16.38;10.02;;;;;;;;;;5011205;28;20510;-76
2023/07/01 03:25:17;;;;;;;13.75;9.45;;;;;;;;;;5011431;28;20096;-76
2023/07/01 03:27:43;;;;;;;11.98;9.45;;;;;;;;;;5010737;28;20025;-77
2023/07/01 03:30:15;;;;;;;16.08;10.10;;;;;;;;;;5011048;28;20026;-77
2023/07/01 03:32:42;;;;;;;16.65;9.13;;;;;;;;;;5011367;28;20397;-77
2023/07/01 03:35:11;;;;;;;16.02;10.05;;;;;;;;;;5011349;28;20049;-76
2023/07/01 03:37:38;;;;;;;15.52;10.30;;;;;;;;;;5014725;28;20022;-77
2023/07/01 03:40:05;;;;;;;14.38;10.18;;;;;;;;;;5015115;28;20029;-76
2023/07/01 03:42:31;;;;;;;14.65;9.25;;;;;;;;;;5015112;28;20033;-76
2023/07/01 03:44:57;;;;;;;15.85;10.55;;;;;;;;;;5014968;28;20033;-77
2023/07/01 03:47:24;;;;;;;14.20;10.13;;;;;;;;;;5014457;28;20049;-77
2023/07/01 03:49:50;;;;;;;15.13;9.80;;;;;;;;;;5014414;28;20022;-76
2023/07/01 03:52:16;;;;;;;12.75;9.80;;;;;;;;;;5015115;28;20041;-77
2023/07/01 03:54:42;;;;;;;16.15;9.20;;;;;;;;;;4997029;28;20026;-77
2023/07/01 03:57:08;;;;;;;14.55;9.38;;;;;;;;;;5014128;28;20076;-75
2023/07/01 03:59:34;;;;;;;15.05;8.63;;;;;;;;;;4996862;28;20022;-77
2023/07/01 04:02:00;;;;;;;13.95;8.27;;;;;;;;;;5016225;28;20488;-77
2023/07/01 04:04:26;;;;;;;11.73;9.25;;;;;;;;;;5017484;28;20022;-76
2023/07/01 04:06:54;;;;;;;11.88;9.10;;;;;;;;;;5015365;28;20101;-77
2023/07/01 04:09:20;;;;;;;10.25;9.18;;;;;;;;;;5014508;28;20026;-77
2023/07/01 04:11:47;;;;;;;9.75;7.93;;;;;;;;;;5014546;28;20643;-77
2023/07/01 04:14:15;;;;;;;13.82;10.02;;;;;;;;;;5014529;28;20041;-76
2023/07/01 04:16:43;;;;;;;21.08;12.60;;;;;;;;;;5014456;28;20025;-76
2023/07/01 04:19:09;;;;;;;16.45;11.35;;;;;;;;;;5013832;28;20022;-77
2023/07/01 04:21:35;;;;;;;16.63;10.35;;;;;;;;;;5014222;28;20041;-76
2023/07/01 04:24:04;;;;;;;15.00;10.05;;;;;;;;;;5014415;28;20040;-76
2023/07/01 04:26:30;;;;;;;15.60;10.30;;;;;;;;;;5014121;28;20098;-75
2023/07/01 04:28:56;;;;;;;12.55;10.38;;;;;;;;;;5013629;28;20556;-76
2023/07/01 04:31:22;;;;;;;17.98;11.30;;;;;;;;;;5014347;28;20026;-77
2023/07/01 04:33:48;;;;;;;14.32;9.50;;;;;;;;;;5014479;28;20018;-77
2023/07/01 04:36:14;;;;;;;10.77;8.38;;;;;;;;;;4996771;28;20025;-76
2023/07/01 04:38:40;;;;;;;13.57;9.20;;;;;;;;;;5013402;28;20026;-76
2023/07/01 04:41:06;;;;;;;14.98;10.35;;;;;;;;;;5013906;28;20045;-75
2023/07/01 04:43:32;;;;;;;19.63;10.82;;;;;;;;;;5014324;28;20029;-77
2023/07/01 04:45:58;;;;;;;11.00;8.77;;;;;;;;;;5014059;28;20022;-76
2023/07/01 04:48:24;;;;;;;15.45;9.27;;;;;;;;;;5013075;28;20022;-76
2023/07/01 04:50:50;;;;;;;10.32;8.65;;;;;;;;;;4996514;28;20045;-76
2023/07/01 04:53:16;;;;;;;14.70;8.00;;;;;;;;;;5014024;28;20455;-76
2023/07/01 04:55:42;;;;;;;11.75;8.48;;;;;;;;;;5013989;28;20073;-77
2023/07/01 04:58:08;;;;;;;12.65;7.55;;;;;;;;;;5013491;28;20049;-77
2023/07/01 05:00:34;;;;;;;9.05;7.45;;;;;;;;;;5014043;28;20488;-76
2023/07/01 05:03:01;;;;;;;11.23;7.63;;;;;;;;;;5013809;28;20033;-76
2023/07/01 05:05:27;;;;;;;11.98;6.45;;;;;;;;;;5013866;28;20025;-76
2023/07/01 05:07:53;;;;;;;9.93;6.10;;;;;;;;;;5010182;28;20034;-76
2023/07/01 05:10:19;;;;;;;9.85;6.03;;;;;;;;;;5013767;28;20022;-78
2023/07/01 05:12:45;;;;;;;11.13;6.28;;;;;;;;;;4996048;28;20034;-76
2023/07/01 05:15:11;;;;;;;7.55;5.55;;;;;;;;;;4995939;28;20033;-77
2023/07/01 05:17:37;;;;;;;9.15;5.80;;;;;;;;;;5010379;28;20064;-77
2023/07/01 05:20:04;;;;;;;7.70;5.60;;;;;;;;;;5012307;28;20092;-76
2023/07/01 05:22:30;;;;;;;11.98;5.15;;;;;;;;;;5013222;28;20033;-77
2023/07/01 05:24:56;;;;;;;8.10;5.00;;;;;;;;;;5013310;28;20383;-77
2023/07/01 05:27:22;;;;;;;6.53;4.70;;;;;;;;;;5012580;28;20026;-76
2023/07/01 05:29:48;;;;;;;8.82;4.70;;;;;;;;;;5013298;28;20018;-78
2023/07/01 05:32:14;;;;;;;6.00;3.25;;;;;;;;;;5013769;28;20032;-77
2023/07/01 05:34:40;;;;;;;4.80;3.63;;;;;;;;;;5013198;28;20026;-77
2023/07/01 05:37:06;;;;;;;9.45;4.05;;;;;;;;;;5012464;28;20026;-75
2023/07/01 05:39:32;;;;;;;4.25;3.20;;;28.70;47.80;;;;;;5012875;28;20084;-77
2023/07/01 05:41:58;;;;;;;8.25;3.60;;;28.60;47.40;;;;;;5013177;28;20030;-77
2023/07/01 05:44:25;;;;;;;6.20;3.60;;;29.50;45.30;;;;;;5013144;28;20026;-77
2023/07/01 05:46:51;;;;;;;6.28;3.47;;;29.90;43.80;;;;;;5013310;28;20022;-77
2023/07/01 05:49:17;;;;;;;4.72;3.42;;;29.70;43.80;;;;;;5012639;28;20076;-77
2023/07/01 05:51:43;;;;;;;5.68;3.28;;;;;;;;;;5013393;28;20490;-77
2023/07/01 05:54:09;;;;;;;5.03;3.40;;;;;;;;;;5013401;28;20033;-76
2023/07/01 05:56:35;;;;;;;4.57;3.55;;;;;;;;;;5013733;28;20029;-77
2023/07/01 05:59:01;;;;;;;9.68;3.55;;;;;;;;;;5011642;28;20157;-79
2023/07/01 06:01:28;;;;;;;6.82;3.20;;;;;;;;;;4996269;28;20038;-78
2023/07/01 06:03:54;;;;;;;10.70;3.38;;;;;;;;;;5012968;28;20026;-77
2023/07/01 06:06:20;;;;;;;8.57;3.83;;;;;;;;;;5011574;28;20026;-77
2023/07/01 06:08:47;;;;;;;8.65;3.20;;;;;;;;;;5011360;28;20029;-77
2023/07/01 06:11:13;;;;;;;4.78;3.00;;;;;;;;;;5012794;28;20026;-78
2023/07/01 06:13:39;;;;;;;5.75;2.88;;;;;;;;;;5012306;28;20071;-77
2023/07/01 06:16:05;;;;;;;9.70;3.40;;;28.10;47.80;;;;;;5011285;28;20399;-78
2023/07/01 06:18:31;;;;;;;6.05;2.28;;;29.00;45.20;;;;;;5011712;28;20044;-78
2023/07/01 06:20:57;;;;;;;9.75;2.92;;;30.30;42.20;;;;;;5012669;28;20037;-78
2023/07/01 06:23:22;;;;;;;6.43;2.65;;;30.50;40.70;;;;;;5012138;28;20033;-78
2023/07/01 06:25:48;;;;;;;3.17;2.08;;;30.90;39.20;;;;;;5013070;28;20049;-78
2023/07/01 06:28:13;;;;;;;4.45;2.60;;;31.00;38.90;;;;;;5014355;28;20049;-79
2023/07/01 06:30:39;;;;;;;7.13;2.80;;;31.40;38.30;;;;;;5019407;28;20036;-78
2023/07/01 06:33:07;;;;;;;5.43;2.40;;;31.40;38.80;;;;;;5019966;28;20025;-78
2023/07/01 06:35:33;;;;;;;5.90;2.65;;;32.10;36.80;;;;;;5018203;28;20030;-78
2023/07/01 06:37:58;;;;;;;3.47;1.90;;;32.00;36.90;;;;;;5019473;28;20026;-79
2023/07/01 06:40:24;;;;;;;7.07;2.15;;;32.80;36.10;;;;;;5019813;28;20057;-79
2023/07/01 06:42:49;;;;;;;4.20;2.15;;;32.50;35.00;;;;;;5023584;28;20022;-79
2023/07/01 06:45:15;;;;;;;6.20;2.15;;;32.60;34.80;;;;;;5016996;28;20026;-79
2023/07/01 06:47:40;;;;;;;3.97;1.75;;;32.20;35.10;;;;;;5012094;28;20065;-79
2023/07/01 06:50:07;;;;;;;7.22;2.20;;;32.70;34.80;;;;;;5011518;28;20026;-78
2023/07/01 06:52:32;;;;;;;5.82;2.20;;;33.70;32.70;;;;;;5011171;28;20076;-78
2023/07/01 06:54:58;;;;;;;5.00;2.10;;;;;;;;;;5011762;28;20045;-78
2023/07/01 06:57:24;;;;;;;6.30;2.00;;;;;;;;;;5010338;28;20057;-77
2023/07/01 06:59:50;;;;;;;2.17;1.60;;;34.10;33.50;;;;;;5011259;28;20036;-78
2023/07/01 07:02:16;;;;;;;5.13;2.20;;;34.90;31.40;;;;;;5011650;28;20033;-77
2023/07/01 07:04:43;;;;;;;3.55;1.70;;;35.20;30.70;;;;;;5011460;28;20036;-77
2023/07/01 07:07:08;;;;;;;4.75;1.88;;;34.80;31.40;;;;;;5003086;28;20485;-77
2023/07/01 07:09:34;;;;;;;4.40;1.75;;;35.70;29.70;;;;;;4994414;28;20037;-78
2023/07/01 07:11:59;;;;;;;5.28;2.00;;;35.50;28.50;;;;;;5000462;28;20109;-79
2023/07/01 07:14:25;;;;;;;5.43;1.65;;;36.20;27.70;;;;;;5003318;28;20029;-78
2023/07/01 07:16:52;;;;;;;5.28;1.50;;;35.60;29.10;;;;;;5011126;28;20038;-78
2023/07/01 07:19:17;;;;;;;1.85;1.27;;;35.70;27.90;;;;;;5010712;28;20080;-78
2023/07/01 07:21:43;;;;;;;5.55;1.45;;;36.50;28.10;;;;;;5011522;28;20428;-77
2023/07/01 07:24:09;;;;;;;3.13;1.30;;;36.50;25.60;;;;;;5010368;28;20026;-78
2023/07/01 07:26:37;;;;;;;4.25;1.50;;;36.60;27.10;;;;;;5011557;28;20054;-78
2023/07/01 07:29:03;;;;;;;4.90;1.60;;;;;;;;;;5011013;28;20032;-78
2023/07/01 07:31:29;;;;;;;3.45;1.77;;;;;;;;;;5011245;28;20049;-78
2023/07/01 07:33:55;;;;;;;3.22;1.55;;;;;;;;;;5011706;28;20381;-77
2023/07/01 07:36:21;;;;;;;1.60;1.30;;;;;;;;;;4993848;28;20050;-78
2023/07/01 07:38:47;;;;;;;5.28;1.52;;;;;;;;;;5012703;28;20022;-79
2023/07/01 07:41:12;;;;;;;2.15;0.80;;;37.10;23.40;;;;;;5012590;28;20026;-79
2023/07/01 07:43:38;;;;;;;8.00;1.83;;;37.10;24.30;;;;;;5013089;28;20056;-79
2023/07/01 07:46:03;;;;;;;2.83;1.20;;;37.50;24.10;;;;;;5012404;28;20096;-79
2023/07/01 07:48:29;;;;;;;1.75;1.25;;;36.80;24.50;;;;;;5011974;28;20077;-78
2023/07/01 07:50:55;;;;;;;3.03;1.63;;;36.40;25.50;;;;;;5012413;28;20072;-78
2023/07/01 07:53:21;;;;;;;3.47;1.52;;;36.00;25.90;;;;;;5012239;28;20033;-79
2023/07/01 07:55:47;;;;;;;2.20;1.08;;;36.00;26.20;;;;;;4994683;28;20439;-79
2023/07/01 07:58:13;;;;;;;1.77;1.00;;;36.20;25.90;;;;;;5011630;28;20030;-79
2023/07/01 08:00:39;;;;;;;4.22;1.70;;;35.60;25.80;;;;;;5013229;28;20086;-79
2023/07/01 08:03:04;;;;;;;3.45;1.42;;;35.60;26.00;;;;;;5013102;28;20022;-78
2023/07/01 08:05:30;;;;;;;4.75;1.50;;;;;;;;;;5011186;28;20135;-78
2023/07/01 08:07:56;;;;;;;5.07;1.50;;;;;;;;;;5010217;28;20022;-79
2023/07/01 08:10:22;;;;;;;2.25;1.20;;;;;;;;;;5010753;28;20024;-78
2023/07/01 08:12:48;;;;;;;2.58;1.52;;;;;;;;;;5010744;28;20026;-79
2023/07/01 08:15:14;;;;;;;2.15;1.25;;;;;;;;;;5011297;28;20681;-78
2023/07/01 08:17:41;;;;;;;4.22;1.77;;;;;;;;;;5023072;22;20049;-75
2023/07/01 08:20:07;;;;;;;5.75;1.50;;;;;;;;;;4975291;28;20066;-75
2023/07/01 08:22:33;;;;;;;3.70;1.45;;;;;;;;;;4993225;28;20030;-75
2023/07/01 08:24:59;;;;;;;2.47;1.23;;;;;;;;;;4994590;28;20030;-75
2023/07/01 08:27:25;;;;;;;3.72;1.23;;;;;;;;;;4993963;28;20030;-75
2023/07/01 08:29:51;;;;;;;3.40;1.48;;;;;;;;;;4994952;28;20096;-75
2023/07/01 08:32:17;;;;;;;5.15;1.23;;;;;;;;;;4994978;28;20030;-76
2023/07/01 08:34:43;;;;;;;6.65;1.67;;;;;;;;;;4994945;28;20027;-75
2023/07/01 08:37:09;;;;;;;4.50;1.50;;;;;;;;;;4993899;28;20030;-76
2023/07/01 08:39:35;;;;;;;4.90;1.27;;;;;;;;;;4994694;28;20037;-75
2023/07/01 08:42:04;;;;;;;4.35;1.48;;;;;;;;;;4994676;28;20031;-75
2023/07/01 08:44:30;;;;;;;2.97;1.60;;;;;;;;;;4993285;28;20480;-75
2023/07/01 08:46:56;;;;;;;3.03;1.30;;;;;;;;;;4994289;28;20023;-75
2023/07/01 08:49:23;;;;;;;5.85;1.95;;;;;;;;;;4993951;28;20026;-76
2023/07/01 08:52:09;;;;;;;3.10;1.30;;;;;;;;;;4994353;28;20022;-76
2023/07/01 08:54:36;;;;;;;1.33;1.20;;;;;;;;;;4994200;28;20022;-75
2023/07/01 08:57:02;;;;;;;3.92;1.58;;;;;;;;;;4993896;28;20026;-75
2023/07/01 08:59:29;;;;;;;5.47;1.70;;;;;;;;;;4992531;28;20046;-75
2023/07/01 09:01:58;;;;;;;3.28;1.40;;;;;;;;;;4992659;28;20405;-76
2023/07/01 09:04:24;;;;;;;2.97;1.40;;;;;;;;;;4994107;28;20032;-76
2023/07/01 09:06:56;;;;;;;2.55;1.60;;;;;;;;;;4993539;28;20053;-76
2023/07/01 09:09:22;;;;;;;3.13;1.50;;;;;;;;;;4993283;28;20124;-75
2023/07/01 09:11:48;;;;;;;5.43;2.03;;;;;;;;;;4992644;28;20058;-75
2023/07/01 09:14:15;;;;;;;5.88;2.20;;;;;;;;;;4995429;28;20091;-75
2023/07/01 09:16:41;;;;;;;2.25;1.65;;;;;;;;;;4995065;28;20042;-76
2023/07/01 09:19:08;;;;;;;2.55;1.40;;;;;;;;;;4994180;28;20520;-77
2023/07/01 09:21:34;;;;;;;1.85;1.40;;;;;;;;;;4993822;28;20038;-76
2023/07/01 09:24:00;;;;;;;4.40;1.60;;;;;;;;;;4993650;28;20027;-76
2023/07/01 09:26:30;;;;;;;5.30;1.95;;;;;;;;;;4993311;28;20030;-76
2023/07/01 09:28:56;;;;;;;5.65;1.60;;;;;;;;;;4992661;28;20034;-76
2023/07/01 09:31:22;;;;;;;3.33;1.65;;;;;;;;;;5013311;28;20144;-77
2023/07/01 09:34:01;;;;;;;2.67;1.80;;;;;;;;;;4996226;28;20480;-77
2023/07/01 09:36:27;;;;;;;3.60;1.75;;;;;;;;;;5011489;28;20034;-77
2023/07/01 09:38:54;;;;;;;2.67;1.70;;;;;;;;;;5011973;28;20084;-77
2023/07/01 09:41:23;;;;;;;4.55;1.90;;;;;;;;;;5012859;28;20026;-75
2023/07/01 09:43:49;;;;;;;5.00;1.80;;;;;;;;;;5012896;28;20018;-76
2023/07/01 09:46:15;;;;;;;2.40;1.40;;;;;;;;;;5012737;28;20022;-75
2023/07/01 09:48:51;;;;;;;5.07;1.55;;;;;;;;;;4993921;28;20499;-75
2023/07/01 09:51:18;;;;;;;1.63;1.20;;;;;;;;;;5012605;28;20026;-75
2023/07/01 09:53:44;;;;;;;4.90;1.70;;;;;;;;;;5012570;28;20094;-75
2023/07/01 09:56:10;;;;;;;2.95;1.50;;;;;;;;;;5012202;28;20026;-75
2023/07/01 09:58:36;;;;;;;2.60;1.60;;;;;;;;;;5011459;28;20113;-75
2023/07/01 10:01:02;;;;;;;5.05;1.88;;;;;;;;;;5012420;28;20022;-75
2023/07/01 10:03:29;;;;;;;3.78;1.52;;;;;;;;;;5012233;28;20033;-76
2023/07/01 10:05:56;;;;;;;3.80;1.70;;;;;;;;;;5012343;28;20420;-75
2023/07/01 10:08:22;;;;;;;3.80;1.70;;;;;;;;;;5016762;28;20188;-78
2023/07/01 10:10:59;;;;;;;4.50;2.05;;;;;;;;;;4998474;28;20033;-78
2023/07/01 10:13:25;;;;;;;5.88;2.17;;;;;;;;;;5015973;28;20045;-77
2023/07/01 10:15:51;;;;;;;6.20;2.00;;;;;;;;;;5012227;28;20360;-77
2023/07/01 10:18:21;;;;;;;3.22;1.63;;;;;;;;;;5011449;28;20034;-76
2023/07/01 10:20:47;;;;;;;5.40;2.03;;;;;;;;;;5012190;28;20022;-77
2023/07/01 10:23:13;;;;;;;3.65;2.00;;;;;;;;;;5011906;28;20018;-77
2023/07/01 10:25:39;;;;;;;3.33;1.95;;;;;;;;;;4994410;28;20026;-77
2023/07/01 10:28:05;;;;;;;2.50;2.10;;;;;;;;;;5010080;28;20018;-77
2023/07/01 10:30:52;;;;;;;3.72;1.60;;;;;;;;;;5010191;28;20105;-77
2023/07/01 10:33:35;;;;;;;3.78;2.13;;;;;;;;;;4996576;28;20045;-76
2023/07/01 10:36:05;;;;;;;4.82;2.22;;;;;;;;;;5013178;28;20025;-77
2023/07/01 10:38:31;;;;;;;7.10;2.10;;;;;;;;;;5012234;28;20033;-77
2023/07/01 10:40:57;;;;;;;4.05;1.80;;;;;;;;;;5012252;28;20033;-77
2023/07/01 10:43:27;;;;;;;4.45;2.13;;;;;;;;;;5013650;28;20169;-77
2023/07/01 10:46:12;;;;;;;6.93;2.10;;;;;;;;;;5011986;28;20109;-77
2023/07/01 10:48:39;;;;;;;5.20;1.90;;;;;;;;;;5014234;28;20117;-79
2023/07/01 10:51:08;;;;;;;6.35;1.90;;;;;;;;;;5013836;28;20064;-77
2023/07/01 10:53:54;;;;;;;3.78;2.08;;;;;;;;;;5011662;28;20026;-77
2023/07/01 10:56:20;;;;;;;5.03;2.40;;;;;;;;;;5012531;28;20022;-78
2023/07/01 10:58:46;;;;;;;6.10;2.63;;;;;;;;;;5012418;28;20459;-79
2023/07/01 11:01:31;;;;;;;13.45;4.30;;;;;;;;;;5014039;28;20029;-78
2023/07/01 11:03:59;;;;;;;8.82;2.70;;;;;;;;;;5015751;28;20033;-77
2023/07/01 11:06:25;;;;;;;4.93;2.38;;;;;;;;;;5017441;28;20026;-79
2023/07/01 11:08:52;;;;;;;4.55;3.25;;;;;;;;;;5014589;28;20026;-77
2023/07/01 11:11:26;;;;;;;6.43;3.47;;;;;;;;;;5015097;28;20108;-78
2023/07/01 11:13:55;;;;;;;5.75;2.88;;;;;;;;;;5014802;28;20022;-77
2023/07/01 11:16:21;;;;;;;9.35;3.97;;;;;;;;;;5014698;28;20392;-77
2023/07/01 11:18:49;;;;;;;6.40;3.85;;;;;;;;;;5010383;28;20057;-77
2023/07/01 11:21:33;;;;;;;10.80;2.97;;;;;;;;;;5011238;28;20553;-77
2023/07/01 11:24:07;;;;;;;5.15;2.97;;;;;;;;;;5011275;28;20030;-76
2023/07/01 11:26:34;;;;;;;3.58;2.72;;;;;;;;;;5012021;28;20057;-77
2023/07/01 11:29:00;;;;;;;5.78;2.75;;;;;;;;;;5010268;28;20388;-77
2023/07/01 11:31:33;;;;;;;5.57;3.13;;;;;;;;;;5010190;28;20014;-77
2023/07/01 11:34:00;;;;;;;3.83;2.90;;;;;;;;;;5010747;28;20437;-76
2023/07/01 11:36:35;;;;;;;5.32;3.03;;;;;;;;;;5012643;28;20084;-77
2023/07/01 11:39:13;;;;;;;4.93;2.78;;;;;;;;;;5012265;28;20406;-78
2023/07/01 11:41:39;;;;;;;7.28;2.97;;;;;;;;;;5013928;28;20113;-77
2023/07/01 11:44:10;;;;;;;7.15;2.60;;;;;;;;;;5014584;28;20068;-78
2023/07/01 11:46:37;;;;;;;4.18;2.67;;;;;;;;;;5016737;28;20041;-79
2023/07/01 11:49:15;;;;;;;5.72;2.90;;;;;;;;;;5011920;28;20022;-77
2023/07/01 11:51:44;;;;;;;4.97;3.05;;;;;;;;;;5011134;28;20373;-77
2023/07/01 11:54:10;;;;;;;6.03;3.17;;;;;;;;;;5012051;28;20022;-78
2023/07/01 11:56:36;;;;;;;6.10;3.30;;;;;;;;;;5011947;28;20087;-77
2023/07/01 11:59:02;;;;;;;4.88;3.00;;;;;;;;;;5014469;28;20018;-77
2023/07/01 12:01:28;;;;;;;4.57;3.00;;;;;;;;;;5015316;28;20147;-78
2023/07/01 12:03:55;;;;;;;6.68;3.22;;;;;;;;;;5015405;28;20026;-77
2023/07/01 12:06:22;;;;;;;3.60;3.00;;;;;;;;;;5017489;28;20030;-78
2023/07/01 12:08:51;;;;;;;4.32;3.25;;;;;;;;;;5023329;28;20022;-78
2023/07/01 12:11:17;;;;;;;10.02;3.10;;;;;;;;;;5024014;28;20061;-78
2023/07/01 12:13:43;;;;;;;3.88;3.08;;;;;;;;;;5005992;28;20026;-77
2023/07/01 12:16:09;;;;;;;6.22;3.08;;;;;;;;;;5019006;28;20030;-77
2023/07/01 12:18:35;;;;;;;5.05;3.22;;;;;;;;;;5000625;28;20045;-77
2023/07/01 12:21:01;;;;;;;4.63;3.08;;;;;;;;;;5020610;28;20026;-77
2023/07/01 12:23:27;;;;;;;5.97;3.42;;;;;;;;;;5022304;28;20030;-79
2023/07/01 12:25:54;;;;;;;8.98;3.40;;;;;;;;;;5022679;28;20025;-79
2023/07/01 12:28:20;;;;;;;3.90;3.50;;;;;;;;;;5006435;28;20026;-78
2023/07/01 12:30:47;;;;;;;7.65;3.40;;;;;;;;;;5018791;28;20029;-77
2023/07/01 12:33:13;;;;;;;4.85;2.72;;;;;;;;;;5018994;28;20025;-79
2023/07/01 12:35:40;;;;;;;4.65;3.10;;;;;;;;;;5000261;28;20515;-79
2023/07/01 12:38:08;;;;;;;4.72;3.35;;;;;;;;;;5017756;28;20022;-77
2023/07/01 12:40:34;;;;;;;9.77;3.55;;;;;;;;;;5017286;28;20034;-78
2023/07/01 12:43:00;;;;;;;6.38;3.10;;;;;;;;;;5002162;28;20057;-79
2023/07/01 12:45:26;;;;;;;7.70;3.35;;;;;;;;;;5019601;28;20021;-76
2023/07/01 12:47:52;;;;;;;5.85;3.75;;;;;;;;;;5015080;28;20408;-76
2023/07/01 12:50:18;;;;;;;7.85;3.88;;;;;;;;;;5014756;28;20026;-77
2023/07/01 12:52:44;;;;;;;3.63;3.20;;;;;;;;;;5014767;28;20026;-78
2023/07/01 12:55:10;;;;;;;5.32;3.33;;;;;;;;;;5017376;28;20032;-79
2023/07/01 12:57:37;;;;;;;5.32;3.47;;;;;;;;;;4997958;28;20040;-77
2023/07/01 13:00:05;;;;;;;5.75;3.50;;;;;;;;;;5013766;28;20033;-78
2023/07/01 13:02:31;;;;;;;5.93;3.15;;;;;;;;;;4995993;28;20022;-77
2023/07/01 13:05:02;;;;;;;7.53;3.60;;;;;;;;;;5017260;28;20109;-79
2023/07/01 13:07:28;;;;;;;6.23;3.33;;;;;;;;;;5013435;28;20097;-78
2023/07/01 13:09:55;;;;;;;5.22;3.80;;;;;;;;;;5014026;28;20025;-77
2023/07/01 13:12:25;;;;;;;5.25;3.42;;;;;;;;;;5013459;28;20439;-77
2023/07/01 13:14:52;;;;;;;4.25;3.40;;;;;;;;;;5013007;28;20435;-78
2023/07/01 13:17:38;;;;;;;17.95;3.63;;;;;;;;;;5012299;28;20202;-77
2023/07/01 13:20:08;;;;;;;5.22;3.20;;;;;;;;;;5013010;28;20524;-77
2023/07/01 13:22:34;;;;;;;5.85;3.30;;;;;;;;;;5013381;28;20021;-78
2023/07/01 13:25:07;;;;;;;5.93;3.15;;;;;;;;;;5013401;28;20033;-77
2023/07/01 13:27:33;;;;;;;5.50;3.50;;;;;;;;;;5012405;28;20101;-77
2023/07/01 13:29:58;;;;;;;5.00;3.35;;;;;;;;;;5013491;28;20022;-77
2023/07/01 13:32:24;;;;;;;4.95;3.10;;;;;;;;;;5013779;28;20049;-77
2023/07/01 13:34:51;;;;;;;5.53;3.53;;;;;;;;;;5013675;28;20189;-77
2023/07/01 13:37:21;;;;;;;6.38;3.65;;;;;;;;;;5012465;28;20060;-77
2023/07/01 13:39:48;;;;;;;7.97;4.00;;;;;;;;;;5013670;28;20483;-77
2023/07/01 13:42:26;;;;;;;3.30;3.00;;;;;;;;;;5013953;28;20121;-77
2023/07/01 13:44:53;;;;;;;5.95;3.40;;;;;;;;;;5013507;28;20022;-77
2023/07/01 13:47:27;;;;;;;4.55;3.35;;;;;;;;;;5012247;28;20033;-76
2023/07/01 13:49:53;;;;;;;6.35;3.90;;;;;;;;;;5013381;28;20022;-77
2023/07/01 13:52:20;;;;;;;5.15;3.30;;;;;;;;;;5012910;28;20072;-77
2023/07/01 13:54:46;;;;;;;3.78;3.47;;;;;;;;;;5013222;28;20106;-77
2023/07/01 13:57:22;;;;;;;5.28;3.65;;;;;;;;;;5012807;28;20045;-77
2023/07/01 13:59:48;;;;;;;6.22;3.80;;;;;;;;;;5012929;28;20022;-77
2023/07/01 14:02:14;;;;;;;7.25;3.75;;;;;;;;;;4994778;28;20030;-78
2023/07/01 14:04:40;;;;;;;6.15;4.13;;;;;;;;;;5012673;28;20038;-77
2023/07/01 14:07:06;;;;;;;6.75;3.85;;;;;;;;;;5012092;28;20041;-77
2023/07/01 14:09:34;;;;;;;5.10;4.03;;;;;;;;;;5012896;28;20033;-78
2023/07/01 14:12:00;;;;;;;6.05;3.60;;;;;;;;;;5012594;28;20037;-78
2023/07/01 14:14:27;;;;;;;6.03;4.07;;;;;;;;;;5012725;28;20052;-77
2023/07/01 14:16:54;;;;;;;5.20;4.10;;;;;;;;;;5012232;28;20026;-78
2023/07/01 14:19:20;;;;;;;8.10;4.07;;;;;;;;;;5011915;28;20029;-79
2023/07/01 14:21:53;;;;;;;6.22;4.32;;;;;;;;;;5012233;28;20500;-79